x

East Scotia Slope (44137) Wave Buoy

5:00am - Tue 26th Sep 2017 All times are EDT. -4 hours from GMT.

  • Sig Wave height 8.9ft
  • Peak Period 14s
  • Wind
    7mph, 11mph gusts
  • Sea Temp 73°f
  • Air Temp 73°f
  • Sea Pressure 1018.2mb
  • East Scotia Slope
  • East Scotia Slope

More Historic Weather Station data

Upgrade to MSW Pro to gain access to the past 30 days of data for over 8000 Wavebouys and Weather Stations around the globe.

Join

Comparision Forecast

View Surf forecast
   
Tue 09/26 5:00am 9ft 14s 7 11 mph 1018.2mb 73f 73f
4:00am 8ft 12s 2 4 mph 1018.3mb 73f 72f
3:00am 8.5ft 13s 4 7 mph 1018.6mb 73f 72f
2:00am 9.5ft 14s 4 9 mph 1018.9mb 73f 72f
1:00am 9ft 13s 4 4 mph 1019.1mb 73f 73f
12:00am 8ft 13s 7 9 mph 1019.2mb 73f 73f
Mon 09/25 11:00pm 7.5ft 14s 2 4 mph 1019.6mb 74f 73f
10:00pm 5.5ft 14s 4 9 mph 1019.9mb 73f 73f
9:00pm 6ft 12s 4 7 mph 1020.1mb 73f 72f
8:00pm 5ft 12s 2 7 mph 1020.2mb 73f 71f
7:00pm 5.5ft 12s 2 2 mph 1020mb 73f 71f
6:00pm 5ft 12s 2 4 mph 1019.9mb 74f 71f
5:00pm 5ft 12s 2 4 mph 1019.9mb 74f 71f
4:00pm 5ft 11s 2 4 mph 1019.8mb 74f 72f
3:00pm 4.5ft 13s 4 9 mph 1019.9mb 74f 71f
2:00pm 5ft 12s 4 9 mph 1019.7mb 74f 71f
1:00pm 5ft 12s 4 7 mph 1019.9mb 74f 70f
12:00pm 4.5ft 10s 2 4 mph 1020.2mb 74f 70f
11:00am 4.5ft 12s 4 7 mph 1020.2mb 73f 69f
10:00am 5ft 13s 4 7 mph 1020.2mb 73f 69f
9:00am 4.5ft 12s 4 7 mph 1020.4mb 73f 69f
8:00am 4.5ft 12s 2 4 mph 1019.7mb 73f 69f
7:00am 5ft 12s 2 4 mph 1019.3mb 73f 69f
6:00am 4.5ft 13s 9 11 mph 1019mb 73f 70f
5:00am 5ft 12s 7 9 mph 1018.4mb 73f 69f
4:00am 4.5ft 13s 7 9 mph 1017.6mb 73f 70f
3:00am 5ft 13s 4 7 mph 1017.9mb 73f 71f
2:00am 5ft 13s 7 7 mph 1017.8mb 73f 71f
1:00am 5ft 13s 9 13 mph 1017.7mb 73f 71f
12:00am 5.5ft 12s 2 4 mph 1018.2mb 73f 70f
Sun 09/24 11:00pm 5.5ft 9s 7 9 mph 1018.2mb 73f 69f
10:00pm 5ft 14s 9 11 mph 1018.1mb 73f 71f
9:00pm 5ft 14s 2 4 mph 1017.6mb 73f 72f
8:00pm 5ft 10s 4 4 mph 1017.3mb 73f 72f
7:00pm 5ft 10s 4 7 mph 1017.1mb 73f 72f
6:00pm 5ft 11s 4 4 mph 1017.5mb 73f 72f
5:00pm 5.5ft 8s 2 4 mph 1016.9mb 73f 74f
4:00pm 5ft 10s 4 7 mph 1016.6mb 73f 74f
3:00pm 5ft 9s 4 7 mph 1016.4mb 73f 74f
2:00pm 5ft 8s 9 13 mph 1016.5mb 73f 73f
1:00pm 4.5ft 11s 7 9 mph 1017.3mb 74f 71f
12:00pm 5ft 10s 7 9 mph 1017.7mb 73f 72f
11:00am 5.5ft 9s 7 9 mph 1017.9mb 73f 72f
10:00am 5ft 10s 9 9 mph 1017.4mb 73f 71f
9:00am 4.5ft 9s 9 11 mph 1017.6mb 72f 71f
8:00am 5ft 11s 9 9 mph 1017.4mb 71f 71f
7:00am 6ft 11s 7 7 mph 1017mb 71f 71f
6:00am 5.5ft 12s 2 4 mph 1016.8mb 71f 71f
5:00am 5.5ft 10s 2 4 mph 1016.4mb 71f 71f
4:00am 5.5ft 11s 4 7 mph 1016.2mb 71f 72f
3:00am 6ft 8s 4 4 mph 1016mb 71f 71f
2:00am 6ft 9s 4 4 mph 1016.2mb 71f 72f
1:00am 5ft 12s 4 7 mph 1016.3mb 71f 71f
12:00am 5.5ft 9s 2 4 mph 1016.2mb 71f 71f
Sat 09/23 11:00pm 5ft 9s 4 4 mph 1016.3mb 71f 71f
10:00pm 5ft 9s 4 7 mph 1016.3mb 71f 72f
9:00pm 5.5ft 9s 7 9 mph 1016.2mb 71f 72f
8:00pm 5.5ft 9s 4 7 mph 1016.1mb 72f 72f
7:00pm 6ft 9s 4 7 mph 1015.8mb 72f 72f
6:00pm 6ft 10s 4 7 mph 1015.5mb 72f 72f
5:00pm 6ft 9s 4 4 mph 1015.7mb 72f 73f
4:00pm 6.5ft 10s 2 4 mph 1015.4mb 72f 74f
3:00pm 7ft 9s 7 9 mph 1015mb 72f 73f
2:00pm 5.5ft 9s 9 9 mph 1015.4mb 72f 73f
1:00pm 6ft 10s 7 9 mph 1015.3mb 72f 73f
12:00pm 6ft 9s 7 9 mph 1015.4mb 71f 72f
11:00am 5.5ft 9s 9 11 mph 1015.8mb 71f 71f
10:00am 6ft 9s 9 11 mph 1016.3mb 71f 71f
9:00am 5.5ft 10s 11 13 mph 1016.7mb 71f 71f
8:00am 6.5ft 10s 9 11 mph 1016.5mb 71f 71f
7:00am 6.5ft 9s 9 11 mph 1016.2mb 71f 71f
6:00am 7ft 9s 9 11 mph 1016mb 71f 71f
5:00am 8ft 10s 9 11 mph 1016mb 71f 70f
4:00am 7ft 8s 11 13 mph 1015.7mb 71f 70f
3:00am 7.5ft 10s 11 13 mph 1015.7mb 71f 70f
2:00am 9ft 10s 9 13 mph 1016.1mb 71f 70f
1:00am 7.5ft 10s 11 13 mph 1016.7mb 71f 70f
12:00am 8.5ft 10s 11 16 mph 1016.8mb 71f 70f
Fri 09/22 11:00pm 7.5ft 11s 13 18 mph 1017mb 71f 70f
10:00pm 8ft 11s 11 16 mph 1017.2mb 71f 70f
9:00pm 9.5ft 10s 13 18 mph 1017.3mb 71f 70f
8:00pm 9ft 11s 16 20 mph 1017.1mb 71f 69f
7:00pm 9ft 11s 16 20 mph 1017.1mb 71f 70f
6:00pm 9ft 10s 13 18 mph 1017mb 71f 70f
5:00pm 9.5ft 10s 13 18 mph 1016.9mb 71f 70f
4:00pm 9ft 11s 16 18 mph 1016.8mb 71f 70f
3:00pm 9.5ft 10s 13 16 mph 1016.9mb 71f 70f
2:00pm 9.5ft 11s 13 16 mph 1017mb 71f 71f
1:00pm 10ft 10s 13 18 mph 1017.4mb 71f 70f
12:00pm 8ft 10s 13 18 mph 1017.7mb 71f 70f
11:00am 8.5ft 10s 13 18 mph 1017.9mb 71f 70f